Time;durP1;ratioP1;P1;durP2;ratioP2;P2;SDS_P1;SDS_P2;PMS_P1;PMS_P2;Temp;Humidity;BMP_temperature;BMP_pressure;BME280_temperature;BME280_humidity;BME280_pressure;Samples;Min_cycle;Max_cycle;Signal;HPM_P1;HPM_P2
2022/11/04 00:02:08;;;;;;;13.88;11.55;;;10.70;99.90;;;;;;5032872;28;20140;-74
2022/11/04 00:04:35;;;;;;;13.27;9.45;;;10.60;99.90;;;;;;5028827;28;20136;-74
2022/11/04 00:08:22;;;;;;;11.90;9.68;;;10.60;99.90;;;;;;5031802;28;20037;-74
2022/11/04 00:09:49;;;;;;;10.65;7.97;;;10.50;99.90;;;;;;5031652;28;20129;-75
2022/11/04 00:12:24;;;;;;;7.50;6.82;;;10.50;99.90;;;;;;5052298;28;20238;-74
2022/11/04 00:14:51;;;;;;;6.32;5.72;;;10.50;99.90;;;;;;5013866;28;20156;-73
2022/11/04 00:17:18;;;;;;;6.38;5.78;;;10.50;99.90;;;;;;5031882;28;20037;-74
2022/11/04 00:33:56;;;;;;;6.82;6.32;;;10.50;99.90;;;;;;5011994;28;20421;-73
2022/11/04 00:36:24;;;;;;;5.45;5.05;;;10.40;99.90;;;;;;5018017;28;20136;-73
2022/11/04 00:38:52;;;;;;;6.50;4.82;;;10.50;99.90;;;;;;5040347;28;20595;-73
2022/11/04 00:41:24;;;;;;;8.90;4.72;;;10.40;99.90;;;;;;5029223;28;20037;-73
2022/11/04 00:44:00;;;;;;;5.28;4.80;;;10.40;99.90;;;;;;5026243;28;20564;-73
2022/11/04 00:46:28;;;;;;;;;;;10.40;99.90;;;;;;5012349;28;20514;-73
2022/11/04 00:48:55;;;;;;;4.85;4.45;;;10.30;99.90;;;;;;5044665;28;19928;-73
2022/11/04 00:51:22;;;;;;;3.40;3.20;;;10.30;99.90;;;;;;5015710;28;20048;-72
2022/11/04 00:53:49;;;;;;;3.80;3.50;;;10.50;99.90;;;;;;5031698;28;20051;-73
2022/11/04 00:56:16;;;;;;;3.95;3.55;;;10.50;99.90;;;;;;5046167;28;20041;-73
2022/11/04 00:58:42;;;;;;;4.20;4.00;;;10.50;99.90;;;;;;5037858;28;20483;-73
2022/11/04 01:01:12;;;;;;;3.75;3.50;;;10.50;99.90;;;;;;5024667;28;20055;-73
2022/11/04 01:03:39;;;;;;;4.35;4.00;;;10.50;99.90;;;;;;5031010;28;20166;-72
2022/11/04 01:06:06;;;;;;;4.60;4.25;;;10.50;99.90;;;;;;5012113;28;20432;-72
2022/11/04 01:08:33;;;;;;;4.45;4.15;;;10.50;99.90;;;;;;5033938;28;20055;-71
2022/11/04 01:11:01;;;;;;;4.53;4.25;;;10.50;99.90;;;;;;5033071;28;20048;-71
2022/11/04 01:13:28;;;;;;;4.57;4.28;;;10.50;99.90;;;;;;5028404;28;20561;-72
2022/11/04 01:15:59;;;;;;;4.60;3.95;;;10.50;99.90;;;;;;5017381;28;20136;-71
2022/11/04 01:18:26;;;;;;;4.28;3.97;;;10.50;99.90;;;;;;5028453;28;20072;-70
2022/11/04 01:20:53;;;;;;;4.63;4.22;;;10.50;99.90;;;;;;5031634;28;20037;-70
2022/11/04 01:23:20;;;;;;;5.13;4.68;;;10.50;99.90;;;;;;5049980;28;20048;-71
2022/11/04 01:25:46;;;;;;;5.45;5.10;;;10.50;99.90;;;;;;5031965;28;20467;-70
2022/11/04 01:28:13;;;;;;;5.57;5.25;;;10.60;99.90;;;;;;5032278;23;20045;-73
2022/11/04 01:30:39;;;;;;;6.10;5.80;;;10.60;99.90;;;;;;5008131;28;20025;-73
2022/11/04 01:33:06;;;;;;;6.88;6.50;;;10.60;99.90;;;;;;5036136;28;20065;-72
2022/11/04 01:35:33;;;;;;;7.22;6.82;;;10.60;99.90;;;;;;5018370;28;20025;-72
2022/11/04 01:37:59;;;;;;;8.10;7.70;;;10.70;99.90;;;;;;5018485;28;20053;-71
2022/11/04 01:40:26;;;;;;;9.50;9.00;;;10.60;99.90;;;;;;4992355;28;20299;-71
2022/11/04 01:42:53;;;;;;;9.50;9.10;;;10.70;99.90;;;;;;4995219;28;20045;-73
2022/11/04 01:45:21;;;;;;;10.50;9.68;;;10.60;99.90;;;;;;4999744;28;20052;-72
2022/11/04 01:48:13;;;;;;;10.73;10.13;;;10.50;99.90;;;;;;4986813;28;20038;-73
2022/11/04 01:50:40;;;;;;;9.27;8.77;;;10.50;99.90;;;;;;4987629;28;20523;-73
2022/11/04 01:53:22;;;;;;;9.35;8.88;;;10.50;99.90;;;;;;4993269;28;20045;-73
2022/11/04 01:55:54;;;;;;;9.60;9.15;;;10.40;99.90;;;;;;5014222;28;20136;-73
2022/11/04 01:58:27;;;;;;;10.32;9.73;;;10.30;99.90;;;;;;4996338;28;20077;-73
2022/11/04 02:00:53;;;;;;;9.70;9.20;;;10.20;99.90;;;;;;4991160;28;20056;-73
2022/11/04 02:03:25;;;;;;;10.77;10.20;;;10.10;99.90;;;;;;4983087;28;20140;-73
2022/11/04 02:05:53;;;;;;;10.63;10.13;;;10.10;99.90;;;;;;4982589;28;20073;-73
2022/11/04 02:08:20;;;;;;;11.77;11.05;;;10.00;99.90;;;;;;5003720;28;20045;-73
2022/11/04 02:11:07;;;;;;;12.32;11.35;;;10.00;99.90;;;;;;4995612;28;20088;-73
2022/11/04 02:13:35;;;;;;;11.32;10.52;;;9.90;99.90;;;;;;5006807;28;20507;-72
2022/11/04 02:16:26;;;;;;;11.55;10.75;;;9.90;99.90;;;;;;4992164;28;20283;-73
2022/11/04 02:19:25;;;;;;;11.25;10.65;;;9.80;99.90;;;;;;4981526;28;20056;-72
2022/11/04 02:22:30;;;;;;;10.57;10.02;;;9.70;99.90;;;;;;4959217;28;20037;-72
2022/11/04 02:25:15;;;;;;;11.38;10.68;;;9.70;99.90;;;;;;4987898;28;20447;-72
2022/11/04 02:27:54;;;;;;;;;;;9.60;99.90;;;;;;4997094;28;20590;-73
2022/11/04 02:30:21;;;;;;;10.30;9.57;;;9.60;99.90;;;;;;4996446;28;19928;-72
2022/11/04 02:33:09;;;;;;;10.40;9.80;;;9.50;99.90;;;;;;5003987;28;20586;-72
2022/11/04 02:36:08;;;;;;;10.27;9.77;;;9.50;99.90;;;;;;4978619;28;20042;-72
2022/11/04 02:38:43;;;;;;;10.32;9.82;;;9.40;99.90;;;;;;4993475;28;20063;-72
2022/11/04 02:41:24;;;;;;;10.75;10.05;;;9.40;99.90;;;;;;4997940;28;20053;-73
2022/11/04 02:44:06;;;;;;;10.00;9.40;;;9.30;99.90;;;;;;4988741;28;20057;-72
2022/11/04 02:46:38;;;;;;;10.25;9.40;;;9.30;99.90;;;;;;4989452;28;20145;-72
2022/11/04 02:49:30;;;;;;;10.23;9.73;;;9.20;99.90;;;;;;5001682;28;20042;-72
2022/11/04 02:52:05;;;;;;;10.73;10.13;;;9.20;99.90;;;;;;5003817;28;20037;-73
2022/11/04 02:54:44;;;;;;;10.63;10.13;;;9.20;99.90;;;;;;4989923;28;20053;-72
2022/11/04 02:57:15;;;;;;;9.68;9.18;;;9.10;99.90;;;;;;4998225;28;20050;-73
2022/11/04 02:59:54;;;;;;;10.10;9.60;;;9.00;99.90;;;;;;4997129;28;20046;-72
2022/11/04 03:02:28;;;;;;;9.02;8.57;;;9.00;99.90;;;;;;5002725;28;20049;-72
2022/11/04 03:04:57;;;;;;;9.38;8.80;;;9.00;99.90;;;;;;4994976;28;20051;-73
2022/11/04 03:07:31;;;;;;;9.15;8.45;;;9.00;99.90;;;;;;5007243;28;20048;-72
2022/11/04 03:10:03;;;;;;;9.90;9.40;;;9.00;99.90;;;;;;4992047;28;20045;-72
2022/11/04 03:12:39;;;;;;;10.10;9.50;;;9.10;99.90;;;;;;4991419;28;20053;-71
2022/11/04 03:15:13;;;;;;;10.88;10.32;;;9.10;99.90;;;;;;5009067;28;20057;-72
2022/11/04 03:17:49;;;;;;;10.32;9.82;;;9.10;99.90;;;;;;4982053;28;20042;-72
2022/11/04 03:20:21;;;;;;;11.15;10.45;;;9.10;99.90;;;;;;4978114;28;20050;-72
2022/11/04 03:22:48;;;;;;;11.38;10.57;;;9.10;99.90;;;;;;5006489;28;20056;-72
2022/11/04 03:25:15;;;;;;;10.68;10.18;;;9.00;99.90;;;;;;5003054;28;20439;-72
2022/11/04 03:28:13;;;;;;;11.18;10.57;;;9.00;99.90;;;;;;5010691;28;20041;-72
2022/11/04 03:30:46;;;;;;;10.88;10.35;;;9.00;99.90;;;;;;4980079;28;20034;-72
2022/11/04 03:33:27;;;;;;;11.45;10.75;;;8.90;99.90;;;;;;4991059;28;20051;-72
2022/11/04 03:35:54;;;;;;;12.63;11.88;;;8.90;99.90;;;;;;4988110;28;20030;-72
2022/11/04 03:38:22;;;;;;;13.32;12.43;;;9.00;99.90;;;;;;5003505;28;20045;-72
2022/11/04 03:40:49;;;;;;;14.65;13.60;;;8.90;99.90;;;;;;4995964;28;20042;-72
2022/11/04 03:43:26;;;;;;;14.15;13.05;;;9.00;99.90;;;;;;4988357;28;20058;-72
2022/11/04 03:45:54;;;;;;;14.20;13.25;;;9.00;99.90;;;;;;5001490;28;20137;-72
2022/11/04 03:48:22;;;;;;;15.10;13.90;;;9.10;99.90;;;;;;5002055;28;20038;-72
2022/11/04 03:50:50;;;;;;;15.82;14.57;;;9.10;99.90;;;;;;5003796;28;20038;-72
2022/11/04 03:53:22;;;;;;;14.48;13.63;;;9.10;99.90;;;;;;4997412;28;20049;-72
2022/11/04 03:56:11;;;;;;;15.35;14.27;;;9.10;99.90;;;;;;5000877;28;20115;-72
2022/11/04 03:58:50;;;;;;;15.98;14.57;;;9.20;99.90;;;;;;5008290;28;20399;-72
2022/11/04 04:01:51;;;;;;;16.25;14.93;;;9.20;99.90;;;;;;4988397;28;20051;-72
2022/11/04 04:04:31;;;;;;;16.63;15.15;;;9.20;99.90;;;;;;4982032;28;20074;-72
2022/11/04 04:07:08;;;;;;;16.52;15.13;;;9.10;99.90;;;;;;4962210;28;20045;-72
2022/11/04 04:09:50;;;;;;;17.00;15.60;;;9.00;99.90;;;;;;4994299;28;20154;-72
2022/11/04 04:12:29;;;;;;;17.33;15.80;;;9.00;99.90;;;;;;4996846;28;20397;-72
2022/11/04 04:15:03;;;;;;;17.58;16.05;;;9.00;99.90;;;;;;4994879;28;20504;-72
2022/11/04 04:17:38;;;;;;;18.65;16.95;;;9.10;99.90;;;;;;4985462;28;20532;-71
2022/11/04 04:20:16;;;;;;;17.60;15.93;;;9.10;99.90;;;;;;5003116;28;20042;-72
2022/11/04 04:22:47;;;;;;;18.60;16.90;;;9.00;99.90;;;;;;5009848;28;20045;-72
2022/11/04 04:28:03;;;;;;;18.38;16.90;;;8.90;99.90;;;;;;4988213;28;20033;-72
2022/11/04 04:30:30;;;;;;;17.95;16.25;;;8.90;99.90;;;;;;4988281;28;20065;-72
2022/11/04 04:33:02;;;;;;;18.55;17.00;;;8.90;99.90;;;;;;4990951;28;20041;-72
2022/11/04 04:35:43;;;;;;;18.45;16.80;;;8.90;99.90;;;;;;4992362;28;20072;-72
2022/11/04 04:47:20;;;;;;;18.48;16.90;;;8.90;99.90;;;;;;4996645;28;20109;-71
2022/11/04 04:49:57;;;;;;;19.57;17.97;;;8.90;99.90;;;;;;5000695;28;20080;-71
2022/11/04 04:52:34;;;;;;;19.27;17.77;;;9.00;99.90;;;;;;4979386;28;20280;-72
2022/11/04 04:55:00;;;;;;;18.63;17.23;;;8.90;99.90;;;;;;4992215;28;20056;-71
2022/11/04 04:57:27;;;;;;;19.80;18.27;;;9.00;99.90;;;;;;5012864;28;20042;-71
2022/11/04 04:59:53;;;;;;;20.05;18.35;;;9.00;99.90;;;;;;4991335;28;20421;-71
2022/11/04 05:02:20;;;;;;;20.30;18.40;;;9.00;99.90;;;;;;4979453;28;20042;-72
2022/11/04 05:04:47;;;;;;;20.02;18.08;;;9.00;99.90;;;;;;4977156;28;20050;-72
2022/11/04 05:07:14;;;;;;;20.27;18.73;;;9.00;99.90;;;;;;4995944;28;20042;-72
2022/11/04 05:09:41;;;;;;;19.38;17.67;;;9.00;99.90;;;;;;4981266;28;20052;-72
2022/11/04 05:12:08;;;;;;;18.48;16.90;;;9.00;99.90;;;;;;4990615;28;20058;-72
2022/11/04 05:14:35;;;;;;;18.90;17.38;;;9.00;99.90;;;;;;4992836;28;20094;-71
2022/11/04 05:17:02;;;;;;;17.80;16.50;;;9.00;99.90;;;;;;4997413;28;20045;-71
2022/11/04 05:19:29;;;;;;;18.35;17.13;;;9.00;99.90;;;;;;4987417;28;20066;-72
2022/11/04 05:21:55;;;;;;;17.83;16.73;;;8.90;99.90;;;;;;4992373;28;20132;-72
2022/11/04 05:24:22;;;;;;;17.77;16.67;;;9.00;99.90;;;;;;4985403;28;20053;-74
2022/11/04 05:26:49;;;;;;;18.67;16.88;;;9.00;99.90;;;;;;4981568;28;20033;-71
2022/11/04 05:29:16;;;;;;;19.00;17.67;;;8.90;99.90;;;;;;5014248;28;20077;-71
2022/11/04 05:31:42;;;;;;;19.50;17.83;;;8.90;99.90;;;;;;4982815;28;20046;-72
2022/11/04 05:34:10;;;;;;;19.42;17.65;;;8.90;99.90;;;;;;4996307;28;20076;-71
2022/11/04 05:36:38;;;;;;;19.42;18.23;;;8.90;99.90;;;;;;5008408;28;20057;-71
2022/11/04 05:39:05;;;;;;;20.45;18.85;;;8.90;99.90;;;;;;4995287;28;20459;-72
2022/11/04 05:41:32;;;;;;;21.98;20.27;;;8.90;99.90;;;;;;4987924;28;20101;-72
2022/11/04 05:44:01;;;;;;;21.13;19.35;;;8.90;99.90;;;;;;5002773;28;20197;-71
2022/11/04 05:46:29;;;;;;;21.52;19.73;;;8.90;99.90;;;;;;4979429;28;20559;-72
2022/11/04 05:48:56;;;;;;;21.38;20.00;;;8.90;99.90;;;;;;4990934;28;20539;-72
2022/11/04 05:51:26;;;;;;;22.75;19.95;;;8.90;99.90;;;;;;5012367;28;20045;-72
2022/11/04 05:53:53;;;;;;;22.55;20.85;;;8.90;99.90;;;;;;5008738;28;20054;-71
2022/11/04 05:56:20;;;;;;;21.05;19.15;;;8.90;99.90;;;;;;4982310;28;20046;-72
2022/11/04 05:58:46;;;;;;;22.00;19.63;;;8.90;99.90;;;;;;4978603;28;20072;-71
2022/11/04 06:01:23;;;;;;;20.65;18.88;;;8.90;99.90;;;;;;4988247;28;20239;-72
2022/11/04 06:03:50;;;;;;;20.98;18.95;;;8.80;99.90;;;;;;4964069;28;20042;-72
2022/11/04 06:06:17;;;;;;;20.88;19.05;;;8.90;99.90;;;;;;4998806;28;20065;-71
2022/11/04 06:08:44;;;;;;;20.83;19.02;;;8.90;99.90;;;;;;4985128;28;20046;-72
2022/11/04 06:11:11;;;;;;;22.15;20.20;;;8.90;99.90;;;;;;4984900;28;20137;-72
2022/11/04 06:13:37;;;;;;;19.95;18.52;;;8.80;99.90;;;;;;4992667;28;20061;-71
2022/11/04 06:16:04;;;;;;;20.65;19.05;;;8.80;99.90;;;;;;5002260;28;20037;-72
2022/11/04 06:18:31;;;;;;;19.73;18.13;;;8.80;99.90;;;;;;5000617;28;20056;-71
2022/11/04 06:21:20;;;;;;;20.45;18.80;;;8.70;99.90;;;;;;4988055;28;20042;-71
2022/11/04 06:23:47;;;;;;;20.75;18.85;;;8.80;99.90;;;;;;4978581;28;20050;-71
2022/11/04 06:26:15;;;;;;;19.75;17.90;;;8.80;99.90;;;;;;5019905;28;20048;-71
2022/11/04 06:28:44;;;;;;;21.08;19.00;;;8.80;99.90;;;;;;4992051;28;20045;-72
2022/11/04 06:31:12;;;;;;;20.58;18.50;;;8.80;99.90;;;;;;4986802;28;20246;-71
2022/11/04 06:33:39;;;;;;;20.58;18.77;;;8.80;99.90;;;;;;4996592;28;20123;-71
2022/11/04 06:36:09;;;;;;;22.52;20.83;;;8.70;99.90;;;;;;5004399;28;20045;-71
2022/11/04 06:38:36;;;;;;;20.00;18.30;;;8.70;99.90;;;;;;5006719;28;20332;-71
2022/11/04 06:41:05;;;;;;;19.45;17.90;;;8.70;99.90;;;;;;4987675;28;20048;-71
2022/11/04 06:43:32;;;;;;;22.02;19.90;;;8.80;99.90;;;;;;5008234;28;20141;-71
2022/11/04 06:46:01;;;;;;;20.13;18.50;;;8.70;99.90;;;;;;4985215;28;20495;-72
2022/11/04 06:48:32;;;;;;;20.00;18.42;;;8.80;99.90;;;;;;4982293;28;20543;-72
2022/11/04 06:50:59;;;;;;;19.25;17.85;;;8.80;99.90;;;;;;4982593;28;20037;-72
2022/11/04 06:53:27;;;;;;;19.20;17.50;;;8.80;99.90;;;;;;4969725;28;20361;-72
2022/11/04 06:56:02;;;;;;;19.83;17.83;;;8.80;99.90;;;;;;4996076;28;20041;-72
2022/11/04 06:58:29;;;;;;;18.77;17.35;;;8.80;99.90;;;;;;5004545;28;20088;-72
2022/11/04 07:00:56;;;;;;;23.08;20.80;;;8.80;99.90;;;;;;4997426;28;20076;-72
2022/11/04 07:03:23;;;;;;;23.20;20.98;;;8.90;99.90;;;;;;4996064;28;20493;-72
2022/11/04 07:05:49;;;;;;;22.67;21.00;;;8.90;99.90;;;;;;4999185;28;20064;-72
2022/11/04 07:08:16;;;;;;;23.67;21.40;;;9.00;99.90;;;;;;4989969;28;20051;-72
2022/11/04 07:10:42;;;;;;;22.92;21.13;;;9.00;99.90;;;;;;5007037;28;20418;-72
2022/11/04 07:13:09;;;;;;;22.38;20.58;;;9.00;99.90;;;;;;5002219;28;20042;-71
2022/11/04 07:15:38;;;;;;;22.10;20.20;;;9.00;99.90;;;;;;4996810;28;20132;-71
2022/11/04 07:18:05;;;;;;;23.17;20.77;;;8.90;99.90;;;;;;5001084;28;20037;-72
2022/11/04 07:20:35;;;;;;;23.02;21.10;;;9.00;99.90;;;;;;4987296;28;20075;-72
2022/11/04 07:23:01;;;;;;;22.58;21.00;;;9.00;99.90;;;;;;4994289;28;20042;-71
2022/11/04 07:25:29;;;;;;;23.55;20.40;;;9.00;99.90;;;;;;5002214;28;20045;-72
2022/11/04 07:27:55;;;;;;;21.80;20.13;;;9.10;99.90;;;;;;5033410;23;20045;-71
2022/11/04 07:30:28;;;;;;;23.63;21.45;;;9.10;99.90;;;;;;5018235;28;20423;-71
2022/11/04 07:32:54;;;;;;;23.10;20.95;;;9.10;99.90;;;;;;5033678;28;20045;-72
2022/11/04 07:35:21;;;;;;;24.65;22.35;;;9.10;99.90;;;;;;5037906;28;20051;-71
2022/11/04 07:37:48;;;;;;;24.15;22.08;;;9.20;99.90;;;;;;5019425;28;20387;-71
2022/11/04 07:40:15;;;;;;;22.23;20.40;;;9.20;99.90;;;;;;5032444;28;20229;-70
2022/11/04 07:42:42;;;;;;;22.35;20.38;;;9.20;99.90;;;;;;5032996;28;20116;-71
2022/11/04 07:45:15;;;;;;;22.75;20.98;;;9.20;99.90;;;;;;5031915;28;20113;-71
2022/11/04 07:47:41;;;;;;;22.02;20.63;;;9.20;99.90;;;;;;5050413;28;20573;-71
2022/11/04 07:50:08;;;;;;;21.95;20.55;;;9.20;99.90;;;;;;5035708;28;20056;-71
2022/11/04 07:52:37;;;;;;;23.08;20.88;;;9.20;99.90;;;;;;5036825;28;20030;-70
2022/11/04 07:55:04;;;;;;;23.27;20.65;;;9.30;99.90;;;;;;5035773;28;20152;-71
2022/11/04 07:57:31;;;;;;;21.13;19.52;;;9.30;99.90;;;;;;5053190;28;20041;-71
2022/11/04 07:59:58;;;;;;;21.67;19.58;;;9.30;99.90;;;;;;5034994;28;20355;-71
2022/11/04 08:02:25;;;;;;;21.85;19.80;;;9.20;99.90;;;;;;5037426;28;20144;-72
2022/11/04 08:04:59;;;;;;;22.20;20.33;;;9.20;99.90;;;;;;5033534;28;20056;-72
2022/11/04 08:07:26;;;;;;;22.20;19.95;;;9.20;99.90;;;;;;5052641;28;20033;-72
2022/11/04 08:09:52;;;;;;;21.42;19.67;;;9.10;99.90;;;;;;5032996;28;20047;-72
2022/11/04 08:12:21;;;;;;;22.27;19.92;;;9.10;99.90;;;;;;5052202;28;20033;-72
2022/11/04 08:14:47;;;;;;;22.05;19.88;;;9.10;99.90;;;;;;5033858;28;20056;-72
2022/11/04 08:17:14;;;;;;;20.63;19.17;;;9.10;99.90;;;;;;5030373;28;20138;-72
2022/11/04 08:19:41;;;;;;;21.58;19.80;;;9.10;99.90;;;;;;5034129;28;20059;-72
2022/11/04 08:22:08;;;;;;;21.52;19.67;;;9.10;99.90;;;;;;5037157;28;20592;-72
2022/11/04 08:24:35;;;;;;;21.80;20.00;;;9.10;99.90;;;;;;5038327;28;20363;-72
2022/11/04 08:27:04;;;;;;;22.55;19.02;;;9.00;99.90;;;;;;5033647;28;20037;-72
2022/11/04 08:29:31;;;;;;;21.30;19.52;;;9.00;99.90;;;;;;5035734;28;20613;-71
2022/11/04 08:31:57;;;;;;;20.20;18.45;;;9.00;99.90;;;;;;5025819;28;20389;-72
2022/11/04 08:34:24;;;;;;;19.83;18.33;;;9.00;99.90;;;;;;5034759;28;20069;-72
2022/11/04 08:36:56;;;;;;;25.20;19.67;;;9.00;99.90;;;;;;5033798;28;20076;-72
2022/11/04 08:39:23;;;;;;;20.88;19.33;;;9.00;99.90;;;;;;5036171;28;20045;-72
2022/11/04 08:41:52;;;;;;;21.00;19.35;;;9.00;99.90;;;;;;5034635;28;20051;-72
2022/11/04 08:44:19;;;;;;;21.63;19.77;;;9.10;99.90;;;;;;5037129;28;20105;-72
2022/11/04 08:46:47;;;;;;;23.50;20.92;;;9.20;99.90;;;;;;5031054;28;20033;-72
2022/11/04 08:49:14;;;;;;;22.48;20.88;;;9.30;99.90;;;;;;5031628;28;20051;-72
2022/11/04 08:51:48;;;;;;;22.85;21.30;;;9.60;99.90;;;;;;5034072;28;20317;-72
2022/11/04 08:54:15;;;;;;;24.98;22.67;;;9.90;99.90;;;;;;5052559;28;20516;-72
2022/11/04 08:56:42;;;;;;;26.00;23.95;;;10.20;99.90;;;;;;5015523;28;20049;-72
2022/11/04 08:59:09;;;;;;;25.38;23.17;;;10.50;99.90;;;;;;5035742;28;20059;-72
2022/11/04 09:01:37;;;;;;;25.67;23.58;;;10.60;99.90;;;;;;5036622;28;20197;-72
2022/11/04 09:04:04;;;;;;;25.70;23.65;;;10.50;99.90;;;;;;5034077;28;20491;-72
2022/11/04 09:06:34;;;;;;;25.63;23.80;;;10.60;99.90;;;;;;5036899;28;20037;-72
2022/11/04 09:09:03;;;;;;;23.70;22.02;;;10.60;99.90;;;;;;5032330;28;20045;-72
2022/11/04 09:11:38;;;;;;;25.10;23.60;;;11.00;99.90;;;;;;5019463;28;20120;-70
2022/11/04 09:14:05;;;;;;;26.67;24.65;;;11.40;99.90;;;;;;5034337;28;20632;-72
2022/11/04 09:16:33;;;;;;;24.98;23.23;;;11.50;99.90;;;;;;5034903;28;20045;-72
2022/11/04 09:19:00;;;;;;;26.40;24.20;;;11.40;99.90;;;;;;5029718;28;21530;-72
2022/11/04 09:21:27;;;;;;;24.67;23.17;;;11.10;99.90;;;;;;5030595;28;20406;-70
2022/11/04 09:23:55;;;;;;;25.55;23.67;;;11.00;99.90;;;;;;5031187;28;20355;-70
2022/11/04 09:26:22;;;;;;;25.67;23.75;;;11.00;99.90;;;;;;5035561;28;20152;-70
2022/11/04 09:28:56;;;;;;;26.23;24.23;;;11.00;99.90;;;;;;5031864;28;20048;-70
2022/11/04 09:31:27;;;;;;;25.67;23.75;;;10.90;99.90;;;;;;5032923;28;20399;-70
2022/11/04 09:33:55;;;;;;;26.67;24.67;;;10.80;99.90;;;;;;5026941;28;20045;-70
2022/11/04 09:36:22;;;;;;;26.08;24.30;;;10.60;99.90;;;;;;5033117;28;20051;-70
2022/11/04 09:38:49;;;;;;;26.88;25.08;;;10.60;99.90;;;;;;5029348;28;20044;-70
2022/11/04 09:41:34;;;;;;;26.67;24.98;;;10.60;99.90;;;;;;5030652;28;20318;-70
2022/11/04 09:44:32;;;;;;;27.63;25.27;;;10.70;99.90;;;;;;5029276;28;20045;-70
2022/11/04 09:47:01;;;;;;;28.17;25.95;;;10.80;99.90;;;;;;5030304;28;20042;-71
2022/11/04 09:49:34;;;;;;;25.77;23.83;;;10.70;99.90;;;;;;5034543;28;20146;-70
2022/11/04 09:52:05;;;;;;;26.67;24.33;;;10.70;99.90;;;;;;5030600;28;20475;-71
2022/11/04 09:54:40;;;;;;;26.63;24.55;;;10.90;99.90;;;;;;5033581;28;20045;-71
2022/11/04 09:57:17;;;;;;;26.80;24.67;;;11.10;99.90;;;;;;5033922;28;20045;-70
2022/11/04 09:59:45;;;;;;;26.10;24.08;;;11.00;99.90;;;;;;5030566;28;20222;-70
2022/11/04 10:02:43;;;;;;;27.23;24.80;;;11.10;99.90;;;;;;5032352;28;20037;-71
2022/11/04 10:05:30;;;;;;;26.15;23.98;;;11.20;99.90;;;;;;5033230;28;20059;-70
2022/11/04 10:08:35;;;;;;;25.35;23.75;;;11.30;99.90;;;;;;5030317;28;21865;-70
2022/11/04 10:11:07;;;;;;;;;;;11.50;99.90;;;;;;5030442;28;20052;-71
2022/11/04 10:13:51;;;;;;;25.63;23.50;;;11.60;99.90;;;;;;5033270;28;19924;-70
2022/11/04 10:16:46;;;;;;;26.42;23.95;;;11.70;99.90;;;;;;5029049;28;20094;-70
2022/11/04 10:19:50;;;;;;;27.77;25.58;;;11.50;99.90;;;;;;5034204;28;20178;-70
2022/11/04 10:22:53;;;;;;;27.05;25.00;;;11.50;99.90;;;;;;5035402;28;20041;-70
2022/11/04 10:25:55;;;;;;;27.98;25.30;;;11.40;99.90;;;;;;4961327;28;20050;-69
2022/11/04 10:28:32;;;;;;;27.02;24.75;;;11.30;99.90;;;;;;5028917;28;20137;-70
2022/11/04 10:30:59;;;;;;;28.90;26.17;;;11.20;99.90;;;;;;5031361;28;20583;-70
2022/11/04 10:33:34;;;;;;;27.52;25.30;;;11.10;99.90;;;;;;5048462;28;20095;-70
2022/11/04 10:36:05;;;;;;;27.63;25.25;;;11.10;99.90;;;;;;5030975;28;20518;-70
2022/11/04 10:38:45;;;;;;;28.02;25.58;;;11.10;99.90;;;;;;5033511;28;20313;-71
2022/11/04 10:41:32;;;;;;;26.52;24.33;;;11.20;99.90;;;;;;5033196;28;20083;-70
2022/11/04 10:44:06;;;;;;;25.77;23.67;;;11.30;99.90;;;;;;5010451;28;20060;-70
2022/11/04 10:46:52;;;;;;;24.60;22.58;;;11.30;99.90;;;;;;5034297;28;20041;-70
2022/11/04 10:49:44;;;;;;;24.35;22.45;;;11.50;99.90;;;;;;5028943;28;20514;-70
2022/11/04 10:52:35;;;;;;;24.98;23.20;;;11.90;99.90;;;;;;5028043;28;20220;-70
2022/11/04 10:55:22;;;;;;;24.17;22.20;;;12.30;99.90;;;;;;5029850;28;20045;-70
2022/11/04 10:57:48;;;;;;;24.30;22.35;;;12.40;99.90;;;;;;5028117;28;20049;-70
2022/11/04 11:00:39;;;;;;;23.75;21.92;;;12.80;99.90;;;;;;5033136;28;20056;-70
2022/11/04 11:03:26;;;;;;;24.30;22.20;;;12.80;99.90;;;;;;5030785;28;20534;-71
2022/11/04 11:06:08;;;;;;;25.00;23.13;;;12.60;99.90;;;;;;5029912;28;20498;-71
2022/11/04 11:08:38;;;;;;;24.92;22.98;;;12.30;99.90;;;;;;5037294;28;20059;-71
2022/11/04 11:11:06;;;;;;;25.67;23.58;;;12.00;99.90;;;;;;5033390;28;20131;-71
2022/11/04 11:13:41;;;;;;;25.63;23.63;;;11.70;99.90;;;;;;5035901;28;20091;-71
2022/11/04 11:16:10;;;;;;;26.10;24.15;;;11.60;99.90;;;;;;5042350;28;20794;-71
2022/11/04 11:18:39;;;;;;;27.60;25.02;;;11.50;99.90;;;;;;5035513;28;20037;-70
2022/11/04 11:21:12;;;;;;;26.85;24.45;;;11.60;99.90;;;;;;5034255;28;20515;-71
2022/11/04 11:23:47;;;;;;;27.95;25.33;;;11.60;99.90;;;;;;5034793;28;20048;-71
2022/11/04 11:26:28;;;;;;;27.30;24.90;;;11.60;99.90;;;;;;5036021;28;20349;-71
2022/11/04 11:29:00;;;;;;;26.42;24.23;;;11.60;99.90;;;;;;5032433;28;20051;-71
2022/11/04 11:31:38;;;;;;;26.00;24.05;;;11.60;99.90;;;;;;5037110;28;20041;-71
2022/11/04 11:34:18;;;;;;;26.88;24.65;;;11.60;99.90;;;;;;5050291;28;20360;-71
2022/11/04 11:36:46;;;;;;;26.65;24.60;;;11.50;99.90;;;;;;5034299;28;20525;-70
2022/11/04 11:39:20;;;;;;;26.90;24.63;;;11.60;99.90;;;;;;5018067;28;20428;-70
2022/11/04 11:42:10;;;;;;;27.55;25.17;;;11.50;99.90;;;;;;5029779;28;20059;-71
2022/11/04 11:44:43;;;;;;;28.13;25.60;;;11.30;99.90;;;;;;5028947;28;20037;-71
2022/11/04 11:47:30;;;;;;;27.95;25.17;;;11.30;99.90;;;;;;5036078;28;20144;-71
2022/11/04 11:50:12;;;;;;;27.50;25.25;;;11.30;99.90;;;;;;5044833;28;20044;-71
2022/11/04 11:52:40;;;;;;;26.58;24.63;;;11.20;99.90;;;;;;5033321;28;20752;-71
2022/11/04 11:55:34;;;;;;;27.10;24.73;;;11.20;99.90;;;;;;5033176;28;20056;-71
2022/11/04 11:58:26;;;;;;;26.30;24.05;;;11.10;99.90;;;;;;5031272;28;20238;-71
2022/11/04 12:01:19;;;;;;;26.80;24.63;;;11.10;99.90;;;;;;5031535;28;20049;-70
2022/11/04 12:03:51;;;;;;;28.63;25.85;;;11.10;99.90;;;;;;5046154;28;20060;-71
2022/11/04 12:07:02;;;;;;;28.27;25.50;;;11.20;99.90;;;;;;5035324;28;20037;-70
2022/11/04 12:10:02;;;;;;;27.20;25.20;;;11.20;99.90;;;;;;5030191;28;20045;-70
2022/11/04 12:12:55;;;;;;;27.48;24.92;;;11.20;99.90;;;;;;5031795;28;20111;-72
2022/11/04 12:15:33;;;;;;;26.98;24.80;;;11.30;99.90;;;;;;5051582;28;20103;-72
2022/11/04 12:18:38;;;;;;;25.77;23.83;;;11.40;99.90;;;;;;5033494;28;20045;-72
2022/11/04 12:21:34;;;;;;;25.87;23.83;;;11.40;99.90;;;;;;5031809;28;20383;-71
2022/11/04 12:24:35;;;;;;;26.48;24.27;;;11.50;99.90;;;;;;5032123;28;20033;-71
2022/11/04 12:27:11;;;;;;;28.80;26.15;;;11.60;99.90;;;;;;5033100;28;20140;-71
2022/11/04 12:29:57;;;;;;;27.63;25.02;;;11.60;99.90;;;;;;5035098;28;20047;-71
2022/11/04 12:32:58;;;;;;;28.98;26.15;;;11.80;99.90;;;;;;5031609;28;20099;-72
2022/11/04 12:36:04;;;;;;;26.33;23.65;;;11.80;99.90;;;;;;5046741;28;20241;-72
2022/11/04 12:39:20;;;;;;;27.17;24.58;;;11.70;99.90;;;;;;5012958;28;20599;-71
2022/11/04 12:41:56;;;;;;;26.77;24.63;;;11.70;99.90;;;;;;5028275;28;20044;-71
2022/11/04 12:45:21;;;;;;;27.63;24.88;;;11.50;99.90;;;;;;5044395;28;20036;-71
2022/11/04 12:47:48;;;;;;;28.27;25.65;;;11.40;99.90;;;;;;5032205;28;20041;-71
2022/11/04 12:50:29;;;;;;;27.27;25.13;;;11.40;99.90;;;;;;5036011;28;20049;-72
2022/11/04 12:53:18;;;;;;;26.23;23.80;;;11.40;99.90;;;;;;5033091;28;20065;-70
2022/11/04 12:56:08;;;;;;;26.35;23.83;;;11.40;99.90;;;;;;5032423;28;20033;-72
2022/11/04 12:58:47;;;;;;;26.08;23.60;;;11.50;99.90;;;;;;5033497;28;20419;-72
2022/11/04 13:01:21;;;;;;;25.30;23.27;;;11.70;99.90;;;;;;5032790;28;20037;-71
2022/11/04 13:04:15;;;;;;;23.63;21.40;;;11.80;99.90;;;;;;5032691;28;20415;-72
2022/11/04 13:06:55;;;;;;;25.17;22.77;;;11.90;99.90;;;;;;5032450;28;20041;-72
2022/11/04 13:09:38;;;;;;;24.90;22.58;;;11.90;99.90;;;;;;5038902;28;20036;-72
2022/11/04 13:12:16;;;;;;;25.80;23.77;;;12.00;99.90;;;;;;5049468;28;20041;-71
2022/11/04 13:14:52;;;;;;;25.75;23.85;;;12.10;99.90;;;;;;5027014;28;20052;-72
2022/11/04 13:17:25;;;;;;;25.50;23.50;;;12.10;99.90;;;;;;5030312;28;20352;-72
2022/11/04 13:19:59;;;;;;;24.75;22.77;;;12.20;99.90;;;;;;5047825;28;20426;-71
2022/11/04 13:22:31;;;;;;;25.38;23.42;;;12.00;99.90;;;;;;5033384;28;20040;-71
2022/11/04 13:25:08;;;;;;;26.15;23.70;;;12.10;99.90;;;;;;5014289;28;20047;-71
2022/11/04 13:27:38;;;;;;;26.38;24.05;;;12.10;99.90;;;;;;5034940;28;20562;-70
2022/11/04 13:30:50;;;;;;;27.15;24.67;;;12.00;99.90;;;;;;4991555;28;20578;-73
2022/11/04 13:33:35;;;;;;;26.45;23.80;;;11.90;99.90;;;;;;4968606;28;20053;-72
2022/11/04 13:36:13;;;;;;;25.75;23.60;;;11.90;99.90;;;;;;4994678;28;20034;-72
2022/11/04 13:38:46;;;;;;;26.38;23.88;;;11.80;99.90;;;;;;4995138;28;20038;-72